»·PEaware :: N555WD KLAX-KSAN

N555WD :: KLAX-KSAN

FLIGHT INFORMATION

Flight Status: Arrived
Operator: Privately registered:
United States
More flights under this callsign
Pilot: Kenneth L. (15825)
Aircraft: CESSNA 172 SKYHAWK
(C172)
More flights by this aircraft type
Origin: KLAX Los Angeles Intl
United States
Destination: KSAN San Diego Intl-Lindbergh
United States
More flights between these airports :: More routes between these airports
Route: MZB
File this flight plan on PilotEdge
Remarks: FOR CAT 11
Altitude:
(Current/Filed)
5,500ft
Speed:
(Current/Filed)
115kts
Departed: 04-Oct-17 12:41 PM
Arrived: 04-Oct-17 01:40 PM
Distance/Time
Traveled:
95nm/0:59
Distance/Time
To Go:
Arrived

Flight Plot

Page will automatically refresh every two minutes.


Map Options




Map Legend


Flown Route
Filed Route
Departure Airport
Arrival Airport
Navaid (VOR, NDB)
Fix

Horizontal Profiles

Position Reports

Time Latitude Longitude Heading Altitude Ground
Speed
04-Oct-17 12:24 33.933360 -118.398266 174 106ft 0kts
04-Oct-17 12:25 33.933360 -118.398266 174 106ft 0kts
04-Oct-17 12:26 33.933360 -118.398266 174 106ft 0kts
04-Oct-17 12:27 33.933360 -118.398266 174 106ft 0kts
04-Oct-17 12:28 33.933360 -118.398266 174 106ft 0kts
04-Oct-17 12:29 33.933360 -118.398266 174 106ft 0kts
04-Oct-17 12:30 33.933360 -118.398266 174 106ft 0kts
04-Oct-17 12:31 33.933360 -118.398266 174 106ft 0kts
04-Oct-17 12:32 33.933360 -118.398266 174 106ft 0kts
04-Oct-17 12:33 33.933360 -118.398266 174 106ft 0kts
04-Oct-17 12:34 33.933360 -118.398266 174 106ft 0kts
04-Oct-17 12:35 33.933360 -118.398266 174 106ft 0kts
04-Oct-17 12:36 33.933360 -118.398266 174 106ft 0kts
04-Oct-17 12:37 33.933360 -118.398266 174 106ft 0kts
04-Oct-17 12:38 33.933360 -118.398266 174 106ft 0kts
04-Oct-17 12:39 33.933360 -118.398266 174 106ft 0kts
04-Oct-17 12:40 33.933881 -118.398190 17 106ft 12kts
04-Oct-17 12:41 33.934976 -118.393875 84 106ft 19kts
04-Oct-17 12:42 33.935726 -118.386420 84 106ft 22kts
04-Oct-17 12:43 33.936395 -118.382783 352 106ft 0kts
04-Oct-17 12:44 33.936396 -118.382783 352 106ft 0kts
04-Oct-17 12:45 33.935648 -118.395202 259 483ft 62kts
04-Oct-17 12:46 33.933078 -118.417720 262 1319ft 71kts
04-Oct-17 12:47 33.930202 -118.441442 262 2271ft 72kts
04-Oct-17 12:48 33.911345 -118.444848 172 2921ft 94kts
04-Oct-17 12:49 33.880422 -118.436728 172 2919ft 127kts
04-Oct-17 12:50 33.847521 -118.428272 172 2910ft 115kts
04-Oct-17 12:51 33.816534 -118.420118 172 2910ft 114kts
04-Oct-17 12:52 33.785217 -118.411916 172 2917ft 115kts
04-Oct-17 12:53 33.756114 -118.404086 172 3354ft 99kts
04-Oct-17 12:54 33.729514 -118.396784 172 4160ft 99kts
04-Oct-17 12:55 33.702638 -118.389671 172 4974ft 98kts
04-Oct-17 12:56 33.674377 -118.382321 172 5425ft 117kts
04-Oct-17 12:57 33.641156 -118.374090 172 5413ft 124kts
04-Oct-17 12:58 33.607500 -118.363872 159 5409ft 126kts
04-Oct-17 12:59 33.580313 -118.338044 132 5410ft 128kts
04-Oct-17 13:00 33.557083 -118.305311 132 5410ft 129kts
04-Oct-17 13:01 33.533717 -118.272287 132 5410ft 130kts
04-Oct-17 13:02 33.510252 -118.239136 132 5410ft 130kts
04-Oct-17 13:03 33.486720 -118.205915 132 5410ft 130kts
04-Oct-17 13:04 33.463291 -118.172725 132 5385ft 130kts
04-Oct-17 13:05 33.439953 -118.139840 133 5377ft 129kts
04-Oct-17 13:06 33.416743 -118.107184 134 5387ft 128kts
04-Oct-17 13:07 33.393595 -118.074642 133 5387ft 129kts
04-Oct-17 13:08 33.370360 -118.041980 134 5388ft 129kts
04-Oct-17 13:09 33.347194 -118.009437 133 5367ft 128kts
04-Oct-17 13:10 33.324373 -117.977427 133 5356ft 126kts
04-Oct-17 13:11 33.301768 -117.945786 133 5445ft 119kts
04-Oct-17 13:12 33.279707 -117.914941 133 5477ft 124kts
04-Oct-17 13:13 33.257136 -117.883388 133 5476ft 126kts
04-Oct-17 13:14 33.234244 -117.851388 133 5475ft 126kts
04-Oct-17 13:15 33.220460 -117.813266 106 5476ft 129kts
04-Oct-17 13:16 33.209774 -117.771659 109 5477ft 135kts
04-Oct-17 13:17 33.197158 -117.728794 109 5477ft 138kts
04-Oct-17 13:18 33.184324 -117.685232 109 5477ft 138kts
04-Oct-17 13:19 33.171519 -117.641765 109 5478ft 139kts
04-Oct-17 13:20 33.158623 -117.598021 109 5478ft 140kts
04-Oct-17 13:21 33.146210 -117.555700 109 5473ft 130kts
04-Oct-17 13:22 33.134436 -117.515449 109 5476ft 128kts
04-Oct-17 13:23 33.122674 -117.475218 109 5477ft 128kts
04-Oct-17 13:24 33.110976 -117.435193 109 5477ft 128kts
04-Oct-17 13:25 33.083964 -117.410393 153 5478ft 125kts
04-Oct-17 13:26 33.053721 -117.389203 153 5479ft 126kts
04-Oct-17 13:27 33.023532 -117.368240 153 5476ft 125kts
04-Oct-17 13:28 32.993555 -117.347324 153 5472ft 127kts
04-Oct-17 13:29 32.963060 -117.326514 153 5476ft 130kts
04-Oct-17 13:30 32.931654 -117.305194 153 5476ft 131kts
04-Oct-17 13:31 32.899850 -117.283639 153 5477ft 132kts
04-Oct-17 13:32 32.888619 -117.251080 32 5470ft 128kts
04-Oct-17 13:33 32.911653 -117.266012 265 5467ft 111kts
04-Oct-17 13:34 32.895237 -117.298435 240 5226ft 130kts
04-Oct-17 13:35 32.914603 -117.313206 52 4338ft 155kts
04-Oct-17 13:36 32.892019 -117.276050 150 3486ft 145kts
04-Oct-17 13:37 32.863083 -117.255163 152 3476ft 119kts
04-Oct-17 13:38 32.834257 -117.234364 152 3476ft 122kts
04-Oct-17 13:39 32.802477 -117.216159 164 2578ft 136kts
04-Oct-17 13:40 32.767291 -117.202036 165 1185ft 122kts
04-Oct-17 13:41 32.753165 -117.172372 103 1140ft 88kts
04-Oct-17 13:42 32.735558 -117.158469 197 956ft 85kts
04-Oct-17 13:43 32.730266 -117.176316 286 159ft 54kts
04-Oct-17 13:44 32.733485 -117.188121 339 16ft 11kts
04-Oct-17 13:45 32.733997 -117.188059 16 16ft 0kts
04-Oct-17 13:46 32.733997 -117.188059 16 16ft 0kts
04-Oct-17 13:47 32.734182 -117.187572 104 16ft 12kts

Navigation Log

Ident Type
1. KLAX Airport
2. MZB Navaid
3. KSAN Airport